sensor_id;sensor_type;location;lat;lon;timestamp;temperature;humidity
648;DHT22;75315;49.006;9.060;2024-03-22T00:02:08;8.30;99.90
648;DHT22;75315;49.006;9.060;2024-03-22T00:04:37;8.30;99.90
648;DHT22;75315;49.006;9.060;2024-03-22T00:07:04;8.30;99.90
648;DHT22;75315;49.006;9.060;2024-03-22T00:09:30;8.30;99.90
648;DHT22;75315;49.006;9.060;2024-03-22T00:11:57;8.20;99.90
648;DHT22;75315;49.006;9.060;2024-03-22T00:14:24;8.20;99.90
648;DHT22;75315;49.006;9.060;2024-03-22T00:16:51;8.30;99.90
648;DHT22;75315;49.006;9.060;2024-03-22T00:19:17;8.20;99.90
648;DHT22;75315;49.006;9.060;2024-03-22T00:21:44;8.20;99.90
648;DHT22;75315;49.006;9.060;2024-03-22T00:24:10;8.10;99.90
648;DHT22;75315;49.006;9.060;2024-03-22T00:26:37;8.10;99.90
648;DHT22;75315;49.006;9.060;2024-03-22T00:29:03;8.10;99.90
648;DHT22;75315;49.006;9.060;2024-03-22T00:31:29;8.10;99.90
648;DHT22;75315;49.006;9.060;2024-03-22T00:33:56;8.00;99.90
648;DHT22;75315;49.006;9.060;2024-03-22T00:36:23;8.00;99.90
648;DHT22;75315;49.006;9.060;2024-03-22T00:38:49;8.00;99.90
648;DHT22;75315;49.006;9.060;2024-03-22T00:41:16;7.80;99.90
648;DHT22;75315;49.006;9.060;2024-03-22T00:43:42;8.00;99.90
648;DHT22;75315;49.006;9.060;2024-03-22T00:46:08;7.80;99.90
648;DHT22;75315;49.006;9.060;2024-03-22T00:48:36;7.90;99.90
648;DHT22;75315;49.006;9.060;2024-03-22T00:51:03;7.80;99.90
648;DHT22;75315;49.006;9.060;2024-03-22T00:53:30;7.80;99.90
648;DHT22;75315;49.006;9.060;2024-03-22T00:55:56;7.70;99.90
648;DHT22;75315;49.006;9.060;2024-03-22T00:58:27;7.70;99.90
648;DHT22;75315;49.006;9.060;2024-03-22T01:00:54;7.70;99.90
648;DHT22;75315;49.006;9.060;2024-03-22T01:03:21;7.70;99.90
648;DHT22;75315;49.006;9.060;2024-03-22T01:05:48;7.80;99.90
648;DHT22;75315;49.006;9.060;2024-03-22T01:08:14;7.70;99.90
648;DHT22;75315;49.006;9.060;2024-03-22T01:10:41;7.80;99.90
648;DHT22;75315;49.006;9.060;2024-03-22T01:13:08;7.60;99.90
648;DHT22;75315;49.006;9.060;2024-03-22T01:15:34;7.60;99.90
648;DHT22;75315;49.006;9.060;2024-03-22T01:18:02;7.50;99.90
648;DHT22;75315;49.006;9.060;2024-03-22T01:20:28;7.50;99.90
648;DHT22;75315;49.006;9.060;2024-03-22T01:22:55;7.50;99.90
648;DHT22;75315;49.006;9.060;2024-03-22T01:25:21;7.40;99.90
648;DHT22;75315;49.006;9.060;2024-03-22T01:27:48;7.40;99.90
648;DHT22;75315;49.006;9.060;2024-03-22T01:30:14;7.30;99.90
648;DHT22;75315;49.006;9.060;2024-03-22T01:32:40;7.40;99.90
648;DHT22;75315;49.006;9.060;2024-03-22T01:35:08;7.30;99.90
648;DHT22;75315;49.006;9.060;2024-03-22T01:37:34;7.30;99.90
648;DHT22;75315;49.006;9.060;2024-03-22T01:40:02;7.30;99.90
648;DHT22;75315;49.006;9.060;2024-03-22T01:42:29;7.20;99.90
648;DHT22;75315;49.006;9.060;2024-03-22T01:44:55;7.30;99.90
648;DHT22;75315;49.006;9.060;2024-03-22T01:47:21;7.40;99.90
648;DHT22;75315;49.006;9.060;2024-03-22T01:49:50;7.40;99.90
648;DHT22;75315;49.006;9.060;2024-03-22T01:52:17;7.50;99.90
648;DHT22;75315;49.006;9.060;2024-03-22T01:54:43;7.40;99.90
648;DHT22;75315;49.006;9.060;2024-03-22T01:57:10;7.30;99.90
648;DHT22;75315;49.006;9.060;2024-03-22T01:59:36;7.30;99.90
648;DHT22;75315;49.006;9.060;2024-03-22T02:02:03;7.20;99.90
648;DHT22;75315;49.006;9.060;2024-03-22T02:04:30;7.20;99.90
648;DHT22;75315;49.006;9.060;2024-03-22T02:06:56;7.20;99.90
648;DHT22;75315;49.006;9.060;2024-03-22T02:09:23;7.20;99.90
648;DHT22;75315;49.006;9.060;2024-03-22T02:11:49;7.20;99.90
648;DHT22;75315;49.006;9.060;2024-03-22T02:14:16;7.20;99.90
648;DHT22;75315;49.006;9.060;2024-03-22T02:16:42;7.10;99.90
648;DHT22;75315;49.006;9.060;2024-03-22T02:19:09;7.20;99.90
648;DHT22;75315;49.006;9.060;2024-03-22T02:21:35;7.10;99.90
648;DHT22;75315;49.006;9.060;2024-03-22T02:24:02;7.00;99.90
648;DHT22;75315;49.006;9.060;2024-03-22T02:26:28;6.90;99.90
648;DHT22;75315;49.006;9.060;2024-03-22T02:28:55;6.90;99.90
648;DHT22;75315;49.006;9.060;2024-03-22T02:31:21;7.00;99.90
648;DHT22;75315;49.006;9.060;2024-03-22T02:33:48;6.90;99.90
648;DHT22;75315;49.006;9.060;2024-03-22T02:36:14;6.90;99.90
648;DHT22;75315;49.006;9.060;2024-03-22T02:38:41;6.90;99.90
648;DHT22;75315;49.006;9.060;2024-03-22T02:41:07;6.90;1.00
648;DHT22;75315;49.006;9.060;2024-03-22T02:43:34;6.90;99.90
648;DHT22;75315;49.006;9.060;2024-03-22T02:46:00;6.90;99.90
648;DHT22;75315;49.006;9.060;2024-03-22T02:48:27;6.90;1.00
648;DHT22;75315;49.006;9.060;2024-03-22T02:50:57;7.00;1.00
648;DHT22;75315;49.006;9.060;2024-03-22T02:53:24;7.10;1.00
648;DHT22;75315;49.006;9.060;2024-03-22T02:55:50;7.10;1.00
648;DHT22;75315;49.006;9.060;2024-03-22T02:58:20;7.20;1.00
648;DHT22;75315;49.006;9.060;2024-03-22T03:00:46;7.30;1.00
648;DHT22;75315;49.006;9.060;2024-03-22T03:03:13;7.20;1.00
648;DHT22;75315;49.006;9.060;2024-03-22T03:05:39;7.10;1.00
648;DHT22;75315;49.006;9.060;2024-03-22T03:08:07;7.20;1.00
648;DHT22;75315;49.006;9.060;2024-03-22T03:10:33;7.20;1.00
648;DHT22;75315;49.006;9.060;2024-03-22T03:13:00;7.10;1.00
648;DHT22;75315;49.006;9.060;2024-03-22T03:15:26;7.20;1.00
648;DHT22;75315;49.006;9.060;2024-03-22T03:17:53;7.20;1.00
648;DHT22;75315;49.006;9.060;2024-03-22T03:20:19;7.20;1.00
648;DHT22;75315;49.006;9.060;2024-03-22T03:22:45;7.10;1.00
648;DHT22;75315;49.006;9.060;2024-03-22T03:25:12;7.00;1.00
648;DHT22;75315;49.006;9.060;2024-03-22T03:27:38;7.00;1.00
648;DHT22;75315;49.006;9.060;2024-03-22T03:30:05;7.10;1.00
648;DHT22;75315;49.006;9.060;2024-03-22T03:32:32;7.20;1.00
648;DHT22;75315;49.006;9.060;2024-03-22T03:34:59;7.30;1.00
648;DHT22;75315;49.006;9.060;2024-03-22T03:37:25;7.20;1.00
648;DHT22;75315;49.006;9.060;2024-03-22T03:39:52;7.30;1.00
648;DHT22;75315;49.006;9.060;2024-03-22T03:42:18;7.30;1.00
648;DHT22;75315;49.006;9.060;2024-03-22T03:44:44;7.40;1.00
648;DHT22;75315;49.006;9.060;2024-03-22T03:47:11;7.40;1.00
648;DHT22;75315;49.006;9.060;2024-03-22T03:49:37;7.50;1.00
648;DHT22;75315;49.006;9.060;2024-03-22T03:52:04;7.50;20.60
648;DHT22;75315;49.006;9.060;2024-03-22T03:54:30;7.40;29.40
648;DHT22;75315;49.006;9.060;2024-03-22T03:56:57;7.50;99.90
648;DHT22;75315;49.006;9.060;2024-03-22T03:59:23;7.50;1.00
648;DHT22;75315;49.006;9.060;2024-03-22T04:01:49;7.30;99.90
648;DHT22;75315;49.006;9.060;2024-03-22T04:04:16;7.30;48.30
648;DHT22;75315;49.006;9.060;2024-03-22T04:06:44;7.40;55.20
648;DHT22;75315;49.006;9.060;2024-03-22T04:09:10;7.30;52.10
648;DHT22;75315;49.006;9.060;2024-03-22T04:11:37;7.30;99.90
648;DHT22;75315;49.006;9.060;2024-03-22T04:14:05;7.50;99.90
648;DHT22;75315;49.006;9.060;2024-03-22T04:16:32;7.50;99.90
648;DHT22;75315;49.006;9.060;2024-03-22T04:18:58;7.60;99.90
648;DHT22;75315;49.006;9.060;2024-03-22T04:21:24;7.70;99.90
648;DHT22;75315;49.006;9.060;2024-03-22T04:23:51;7.70;12.80
648;DHT22;75315;49.006;9.060;2024-03-22T04:26:17;7.70;1.00
648;DHT22;75315;49.006;9.060;2024-03-22T04:28:44;7.80;1.00
648;DHT22;75315;49.006;9.060;2024-03-22T04:31:10;7.80;99.90
648;DHT22;75315;49.006;9.060;2024-03-22T04:33:37;7.80;99.90
648;DHT22;75315;49.006;9.060;2024-03-22T04:36:04;7.80;99.90
648;DHT22;75315;49.006;9.060;2024-03-22T04:38:31;7.80;99.90
648;DHT22;75315;49.006;9.060;2024-03-22T04:40:58;7.90;99.90
648;DHT22;75315;49.006;9.060;2024-03-22T04:43:24;7.90;99.90
648;DHT22;75315;49.006;9.060;2024-03-22T04:45:51;7.90;99.90
648;DHT22;75315;49.006;9.060;2024-03-22T04:48:20;7.90;99.90
648;DHT22;75315;49.006;9.060;2024-03-22T04:50:51;7.90;99.90
648;DHT22;75315;49.006;9.060;2024-03-22T04:53:18;7.90;99.90
648;DHT22;75315;49.006;9.060;2024-03-22T04:55:47;7.90;1.00
648;DHT22;75315;49.006;9.060;2024-03-22T04:58:15;7.70;1.00
648;DHT22;75315;49.006;9.060;2024-03-22T05:00:42;7.90;99.90
648;DHT22;75315;49.006;9.060;2024-03-22T05:03:08;7.80;1.00
648;DHT22;75315;49.006;9.060;2024-03-22T05:05:35;7.90;1.00
648;DHT22;75315;49.006;9.060;2024-03-22T05:08:02;7.90;99.90
648;DHT22;75315;49.006;9.060;2024-03-22T05:10:29;7.90;99.90
648;DHT22;75315;49.006;9.060;2024-03-22T05:12:56;8.00;99.90
648;DHT22;75315;49.006;9.060;2024-03-22T05:15:23;7.80;1.00
648;DHT22;75315;49.006;9.060;2024-03-22T05:17:49;7.80;1.00
648;DHT22;75315;49.006;9.060;2024-03-22T05:20:16;7.90;1.00
648;DHT22;75315;49.006;9.060;2024-03-22T05:22:42;7.80;1.00
648;DHT22;75315;49.006;9.060;2024-03-22T05:25:09;7.80;99.90
648;DHT22;75315;49.006;9.060;2024-03-22T05:27:36;7.70;1.00
648;DHT22;75315;49.006;9.060;2024-03-22T05:30:03;7.80;99.90
648;DHT22;75315;49.006;9.060;2024-03-22T05:32:32;7.80;99.90
648;DHT22;75315;49.006;9.060;2024-03-22T05:34:58;7.70;1.00
648;DHT22;75315;49.006;9.060;2024-03-22T05:37:25;7.70;1.00
648;DHT22;75315;49.006;9.060;2024-03-22T05:39:51;7.60;1.00
648;DHT22;75315;49.006;9.060;2024-03-22T05:42:18;7.80;99.90
648;DHT22;75315;49.006;9.060;2024-03-22T05:44:45;7.70;1.00
648;DHT22;75315;49.006;9.060;2024-03-22T05:47:11;7.70;1.80
648;DHT22;75315;49.006;9.060;2024-03-22T05:49:40;7.60;99.90
648;DHT22;75315;49.006;9.060;2024-03-22T05:52:06;7.70;99.90
648;DHT22;75315;49.006;9.060;2024-03-22T05:54:33;7.70;99.90
648;DHT22;75315;49.006;9.060;2024-03-22T05:56:59;7.70;99.90
648;DHT22;75315;49.006;9.060;2024-03-22T05:59:26;7.60;99.90
648;DHT22;75315;49.006;9.060;2024-03-22T06:01:54;7.70;99.90
648;DHT22;75315;49.006;9.060;2024-03-22T06:04:20;7.70;99.90
648;DHT22;75315;49.006;9.060;2024-03-22T06:06:46;7.60;99.90
648;DHT22;75315;49.006;9.060;2024-03-22T06:09:13;7.70;99.90
648;DHT22;75315;49.006;9.060;2024-03-22T06:11:45;7.70;99.90
648;DHT22;75315;49.006;9.060;2024-03-22T06:14:11;7.80;99.90
648;DHT22;75315;49.006;9.060;2024-03-22T06:16:38;7.80;99.90
648;DHT22;75315;49.006;9.060;2024-03-22T06:19:04;7.80;99.90
648;DHT22;75315;49.006;9.060;2024-03-22T06:21:31;7.90;99.90
648;DHT22;75315;49.006;9.060;2024-03-22T06:23:57;8.00;99.90
648;DHT22;75315;49.006;9.060;2024-03-22T06:26:24;8.10;99.90
648;DHT22;75315;49.006;9.060;2024-03-22T06:28:50;8.20;99.90
648;DHT22;75315;49.006;9.060;2024-03-22T06:31:17;8.20;99.90
648;DHT22;75315;49.006;9.060;2024-03-22T06:33:43;8.20;99.90
648;DHT22;75315;49.006;9.060;2024-03-22T06:36:10;8.30;1.00
648;DHT22;75315;49.006;9.060;2024-03-22T06:38:36;8.40;26.10
648;DHT22;75315;49.006;9.060;2024-03-22T06:41:04;8.40;99.90
648;DHT22;75315;49.006;9.060;2024-03-22T06:43:30;8.40;8.70
648;DHT22;75315;49.006;9.060;2024-03-22T06:45:57;8.60;99.90
648;DHT22;75315;49.006;9.060;2024-03-22T06:48:23;8.80;1.00
648;DHT22;75315;49.006;9.060;2024-03-22T06:50:50;9.10;1.00
648;DHT22;75315;49.006;9.060;2024-03-22T06:53:16;9.40;1.00
648;DHT22;75315;49.006;9.060;2024-03-22T06:55:43;9.60;1.00
648;DHT22;75315;49.006;9.060;2024-03-22T06:58:10;9.70;1.00
648;DHT22;75315;49.006;9.060;2024-03-22T07:00:37;9.90;1.00
648;DHT22;75315;49.006;9.060;2024-03-22T07:03:03;10.10;1.00
648;DHT22;75315;49.006;9.060;2024-03-22T07:05:30;10.40;1.00
648;DHT22;75315;49.006;9.060;2024-03-22T07:07:57;11.10;1.00
648;DHT22;75315;49.006;9.060;2024-03-22T07:10:24;11.40;1.00
648;DHT22;75315;49.006;9.060;2024-03-22T07:12:56;11.70;1.00
648;DHT22;75315;49.006;9.060;2024-03-22T07:15:23;11.90;1.00
648;DHT22;75315;49.006;9.060;2024-03-22T07:17:50;12.20;1.00
648;DHT22;75315;49.006;9.060;2024-03-22T07:20:17;12.80;1.00
648;DHT22;75315;49.006;9.060;2024-03-22T07:22:44;13.20;1.00
648;DHT22;75315;49.006;9.060;2024-03-22T07:25:11;13.50;1.00
648;DHT22;75315;49.006;9.060;2024-03-22T07:27:38;13.20;1.00
648;DHT22;75315;49.006;9.060;2024-03-22T07:30:05;13.70;1.00
648;DHT22;75315;49.006;9.060;2024-03-22T07:32:32;14.10;1.00
648;DHT22;75315;49.006;9.060;2024-03-22T07:34:59;14.30;1.00
648;DHT22;75315;49.006;9.060;2024-03-22T07:37:25;14.30;1.00
648;DHT22;75315;49.006;9.060;2024-03-22T07:39:51;14.30;1.00
648;DHT22;75315;49.006;9.060;2024-03-22T07:42:18;14.80;1.00
648;DHT22;75315;49.006;9.060;2024-03-22T07:44:44;14.50;1.00
648;DHT22;75315;49.006;9.060;2024-03-22T07:47:11;14.90;1.00
648;DHT22;75315;49.006;9.060;2024-03-22T07:49:37;14.80;1.00
648;DHT22;75315;49.006;9.060;2024-03-22T07:52:04;14.90;1.00
648;DHT22;75315;49.006;9.060;2024-03-22T07:54:31;15.60;1.00
648;DHT22;75315;49.006;9.060;2024-03-22T07:56:58;16.10;1.00
648;DHT22;75315;49.006;9.060;2024-03-22T07:59:24;15.70;1.00
648;DHT22;75315;49.006;9.060;2024-03-22T08:01:51;15.60;1.00
648;DHT22;75315;49.006;9.060;2024-03-22T08:04:17;15.90;1.00
648;DHT22;75315;49.006;9.060;2024-03-22T08:06:44;15.30;1.00
648;DHT22;75315;49.006;9.060;2024-03-22T08:09:10;14.70;1.00
648;DHT22;75315;49.006;9.060;2024-03-22T08:11:37;14.50;1.00
648;DHT22;75315;49.006;9.060;2024-03-22T08:14:03;13.90;1.00
648;DHT22;75315;49.006;9.060;2024-03-22T08:16:30;13.50;99.90
648;DHT22;75315;49.006;9.060;2024-03-22T08:18:56;13.50;1.00
648;DHT22;75315;49.006;9.060;2024-03-22T08:21:24;13.50;1.00
648;DHT22;75315;49.006;9.060;2024-03-22T08:23:51;13.30;99.90
648;DHT22;75315;49.006;9.060;2024-03-22T08:26:18;13.30;99.90
648;DHT22;75315;49.006;9.060;2024-03-22T08:28:48;13.60;1.00
648;DHT22;75315;49.006;9.060;2024-03-22T08:31:14;13.80;1.00
648;DHT22;75315;49.006;9.060;2024-03-22T08:33:41;13.60;1.00
648;DHT22;75315;49.006;9.060;2024-03-22T08:36:07;13.20;1.00
648;DHT22;75315;49.006;9.060;2024-03-22T08:38:34;13.10;1.00
648;DHT22;75315;49.006;9.060;2024-03-22T08:41:01;13.20;1.00
648;DHT22;75315;49.006;9.060;2024-03-22T08:43:27;13.40;1.00
648;DHT22;75315;49.006;9.060;2024-03-22T08:45:55;13.50;1.00
648;DHT22;75315;49.006;9.060;2024-03-22T08:48:22;13.60;1.00
648;DHT22;75315;49.006;9.060;2024-03-22T08:50:48;13.50;1.00
648;DHT22;75315;49.006;9.060;2024-03-22T08:53:15;13.70;1.00
648;DHT22;75315;49.006;9.060;2024-03-22T08:55:48;13.80;1.00
648;DHT22;75315;49.006;9.060;2024-03-22T08:58:15;13.80;1.00
648;DHT22;75315;49.006;9.060;2024-03-22T09:00:41;14.00;1.00
648;DHT22;75315;49.006;9.060;2024-03-22T09:03:08;14.40;1.00
648;DHT22;75315;49.006;9.060;2024-03-22T09:05:35;14.50;1.00
648;DHT22;75315;49.006;9.060;2024-03-22T09:08:03;14.20;1.00
648;DHT22;75315;49.006;9.060;2024-03-22T09:10:30;14.40;1.00
648;DHT22;75315;49.006;9.060;2024-03-22T09:12:56;14.20;1.00
648;DHT22;75315;49.006;9.060;2024-03-22T09:15:23;14.50;1.00
648;DHT22;75315;49.006;9.060;2024-03-22T09:17:52;14.50;1.00
648;DHT22;75315;49.006;9.060;2024-03-22T09:20:19;14.60;1.00
648;DHT22;75315;49.006;9.060;2024-03-22T09:22:45;14.60;1.00
648;DHT22;75315;49.006;9.060;2024-03-22T09:25:12;14.70;1.00
648;DHT22;75315;49.006;9.060;2024-03-22T09:27:39;14.70;1.00
648;DHT22;75315;49.006;9.060;2024-03-22T09:30:06;14.60;1.00
648;DHT22;75315;49.006;9.060;2024-03-22T09:32:32;14.90;1.00
648;DHT22;75315;49.006;9.060;2024-03-22T09:34:59;15.10;1.00
648;DHT22;75315;49.006;9.060;2024-03-22T09:37:25;15.20;1.00
648;DHT22;75315;49.006;9.060;2024-03-22T09:39:52;15.10;1.00
648;DHT22;75315;49.006;9.060;2024-03-22T09:42:22;15.20;1.00
648;DHT22;75315;49.006;9.060;2024-03-22T09:44:49;15.10;1.00
648;DHT22;75315;49.006;9.060;2024-03-22T09:47:17;15.50;1.00
648;DHT22;75315;49.006;9.060;2024-03-22T09:49:44;15.30;1.00
648;DHT22;75315;49.006;9.060;2024-03-22T09:52:13;15.30;1.00
648;DHT22;75315;49.006;9.060;2024-03-22T09:54:45;15.30;1.00
648;DHT22;75315;49.006;9.060;2024-03-22T09:57:15;15.40;1.00
648;DHT22;75315;49.006;9.060;2024-03-22T09:59:43;15.40;1.00
648;DHT22;75315;49.006;9.060;2024-03-22T10:02:11;15.60;1.00
648;DHT22;75315;49.006;9.060;2024-03-22T10:04:42;15.60;1.00
648;DHT22;75315;49.006;9.060;2024-03-22T10:07:08;15.60;1.00
648;DHT22;75315;49.006;9.060;2024-03-22T10:09:36;15.60;1.00
648;DHT22;75315;49.006;9.060;2024-03-22T10:12:04;15.90;1.00
648;DHT22;75315;49.006;9.060;2024-03-22T10:14:30;16.10;1.00
648;DHT22;75315;49.006;9.060;2024-03-22T10:16:57;16.10;1.00
648;DHT22;75315;49.006;9.060;2024-03-22T10:19:24;16.20;1.00
648;DHT22;75315;49.006;9.060;2024-03-22T10:22:01;16.40;1.00
648;DHT22;75315;49.006;9.060;2024-03-22T10:24:28;16.70;1.00
648;DHT22;75315;49.006;9.060;2024-03-22T10:26:55;16.60;1.00
648;DHT22;75315;49.006;9.060;2024-03-22T10:29:22;16.50;1.00
648;DHT22;75315;49.006;9.060;2024-03-22T10:31:53;16.80;1.00
648;DHT22;75315;49.006;9.060;2024-03-22T10:34:24;16.90;1.00
648;DHT22;75315;49.006;9.060;2024-03-22T10:36:51;17.00;1.00
648;DHT22;75315;49.006;9.060;2024-03-22T10:39:18;16.90;1.00
648;DHT22;75315;49.006;9.060;2024-03-22T10:41:48;16.90;1.00
648;DHT22;75315;49.006;9.060;2024-03-22T10:44:15;17.10;1.00
648;DHT22;75315;49.006;9.060;2024-03-22T10:46:46;17.40;1.00
648;DHT22;75315;49.006;9.060;2024-03-22T10:49:18;17.20;1.00
648;DHT22;75315;49.006;9.060;2024-03-22T10:51:51;17.30;1.00
648;DHT22;75315;49.006;9.060;2024-03-22T10:54:21;17.30;1.00
648;DHT22;75315;49.006;9.060;2024-03-22T10:56:49;17.70;1.00
648;DHT22;75315;49.006;9.060;2024-03-22T10:59:19;17.90;1.00
648;DHT22;75315;49.006;9.060;2024-03-22T11:01:46;18.10;1.00
648;DHT22;75315;49.006;9.060;2024-03-22T11:04:16;17.90;1.00
648;DHT22;75315;49.006;9.060;2024-03-22T11:06:50;18.10;1.00
648;DHT22;75315;49.006;9.060;2024-03-22T11:09:24;18.20;1.00
648;DHT22;75315;49.006;9.060;2024-03-22T11:11:52;18.30;99.90
648;DHT22;75315;49.006;9.060;2024-03-22T11:14:20;18.30;99.90
648;DHT22;75315;49.006;9.060;2024-03-22T11:16:47;18.80;99.90
648;DHT22;75315;49.006;9.060;2024-03-22T11:19:14;18.80;99.90
648;DHT22;75315;49.006;9.060;2024-03-22T11:21:40;18.90;99.90
648;DHT22;75315;49.006;9.060;2024-03-22T11:24:08;18.50;99.90
648;DHT22;75315;49.006;9.060;2024-03-22T11:26:35;18.50;99.90
648;DHT22;75315;49.006;9.060;2024-03-22T11:29:02;18.80;99.90
648;DHT22;75315;49.006;9.060;2024-03-22T11:31:28;18.00;99.90
648;DHT22;75315;49.006;9.060;2024-03-22T11:33:55;17.90;99.90
648;DHT22;75315;49.006;9.060;2024-03-22T11:36:22;18.20;99.90
648;DHT22;75315;49.006;9.060;2024-03-22T11:38:49;17.90;99.90
648;DHT22;75315;49.006;9.060;2024-03-22T11:41:18;18.00;99.90
648;DHT22;75315;49.006;9.060;2024-03-22T11:43:47;17.90;99.90
648;DHT22;75315;49.006;9.060;2024-03-22T11:46:15;18.00;99.90
648;DHT22;75315;49.006;9.060;2024-03-22T11:48:42;17.90;99.90
648;DHT22;75315;49.006;9.060;2024-03-22T11:51:09;18.00;99.90
648;DHT22;75315;49.006;9.060;2024-03-22T11:53:36;17.80;99.90
648;DHT22;75315;49.006;9.060;2024-03-22T11:56:05;17.60;99.90
648;DHT22;75315;49.006;9.060;2024-03-22T11:58:34;17.50;99.90
648;DHT22;75315;49.006;9.060;2024-03-22T12:01:01;17.60;99.90
648;DHT22;75315;49.006;9.060;2024-03-22T12:03:28;17.70;99.90
648;DHT22;75315;49.006;9.060;2024-03-22T12:05:54;18.00;99.90
648;DHT22;75315;49.006;9.060;2024-03-22T12:08:21;18.10;99.90
648;DHT22;75315;49.006;9.060;2024-03-22T12:10:47;17.90;99.90
648;DHT22;75315;49.006;9.060;2024-03-22T12:13:14;17.90;99.90
648;DHT22;75315;49.006;9.060;2024-03-22T12:15:40;17.90;99.90
648;DHT22;75315;49.006;9.060;2024-03-22T12:18:07;17.90;99.90
648;DHT22;75315;49.006;9.060;2024-03-22T12:20:33;18.00;99.90
648;DHT22;75315;49.006;9.060;2024-03-22T12:23:00;17.80;99.90
648;DHT22;75315;49.006;9.060;2024-03-22T12:25:26;18.10;99.90
648;DHT22;75315;49.006;9.060;2024-03-22T12:27:53;18.20;99.90
648;DHT22;75315;49.006;9.060;2024-03-22T12:30:19;17.80;99.90
648;DHT22;75315;49.006;9.060;2024-03-22T12:32:46;17.90;99.90
648;DHT22;75315;49.006;9.060;2024-03-22T12:35:12;18.20;99.90
648;DHT22;75315;49.006;9.060;2024-03-22T12:37:38;17.90;99.90
648;DHT22;75315;49.006;9.060;2024-03-22T12:40:06;17.90;99.90
648;DHT22;75315;49.006;9.060;2024-03-22T12:42:34;17.90;99.90
648;DHT22;75315;49.006;9.060;2024-03-22T12:45:01;17.90;99.90
648;DHT22;75315;49.006;9.060;2024-03-22T12:47:27;18.10;99.90
648;DHT22;75315;49.006;9.060;2024-03-22T12:49:54;18.30;99.90
648;DHT22;75315;49.006;9.060;2024-03-22T12:52:23;18.30;99.90
648;DHT22;75315;49.006;9.060;2024-03-22T12:54:50;18.50;99.90
648;DHT22;75315;49.006;9.060;2024-03-22T12:57:16;18.50;99.90
648;DHT22;75315;49.006;9.060;2024-03-22T12:59:44;18.50;99.90
648;DHT22;75315;49.006;9.060;2024-03-22T13:02:12;18.50;99.90
648;DHT22;75315;49.006;9.060;2024-03-22T13:04:39;18.60;99.90
648;DHT22;75315;49.006;9.060;2024-03-22T13:07:05;18.70;99.90
648;DHT22;75315;49.006;9.060;2024-03-22T13:09:32;18.60;99.90
648;DHT22;75315;49.006;9.060;2024-03-22T13:11:58;18.50;99.90
648;DHT22;75315;49.006;9.060;2024-03-22T13:14:25;18.60;99.90
648;DHT22;75315;49.006;9.060;2024-03-22T13:16:51;18.80;99.90
648;DHT22;75315;49.006;9.060;2024-03-22T13:19:18;18.80;99.90
648;DHT22;75315;49.006;9.060;2024-03-22T13:21:44;18.70;99.90
648;DHT22;75315;49.006;9.060;2024-03-22T13:24:14;18.90;99.90
648;DHT22;75315;49.006;9.060;2024-03-22T13:26:41;18.90;99.90
648;DHT22;75315;49.006;9.060;2024-03-22T13:29:07;18.70;99.90
648;DHT22;75315;49.006;9.060;2024-03-22T13:31:34;18.90;99.90
648;DHT22;75315;49.006;9.060;2024-03-22T13:34:00;19.00;99.90
648;DHT22;75315;49.006;9.060;2024-03-22T13:36:27;18.70;99.90
648;DHT22;75315;49.006;9.060;2024-03-22T13:38:54;18.50;99.90
648;DHT22;75315;49.006;9.060;2024-03-22T13:41:21;18.60;99.90
648;DHT22;75315;49.006;9.060;2024-03-22T13:43:47;18.60;99.90
648;DHT22;75315;49.006;9.060;2024-03-22T13:46:14;18.80;99.90
648;DHT22;75315;49.006;9.060;2024-03-22T13:48:41;18.80;99.90
648;DHT22;75315;49.006;9.060;2024-03-22T13:51:07;18.70;99.90
648;DHT22;75315;49.006;9.060;2024-03-22T13:53:34;18.70;99.90
648;DHT22;75315;49.006;9.060;2024-03-22T13:56:00;18.50;99.90
648;DHT22;75315;49.006;9.060;2024-03-22T13:58:27;18.50;99.90
648;DHT22;75315;49.006;9.060;2024-03-22T14:00:53;18.30;99.90
648;DHT22;75315;49.006;9.060;2024-03-22T14:03:20;18.10;99.90
648;DHT22;75315;49.006;9.060;2024-03-22T14:05:46;18.10;99.90
648;DHT22;75315;49.006;9.060;2024-03-22T14:08:14;18.20;99.90
648;DHT22;75315;49.006;9.060;2024-03-22T14:10:41;18.30;99.90
648;DHT22;75315;49.006;9.060;2024-03-22T14:13:07;18.20;99.90
648;DHT22;75315;49.006;9.060;2024-03-22T14:15:34;18.30;99.90
648;DHT22;75315;49.006;9.060;2024-03-22T14:18:02;17.90;99.90
648;DHT22;75315;49.006;9.060;2024-03-22T14:20:29;17.80;99.90
648;DHT22;75315;49.006;9.060;2024-03-22T14:22:55;17.70;99.90
648;DHT22;75315;49.006;9.060;2024-03-22T14:25:22;17.80;99.90
648;DHT22;75315;49.006;9.060;2024-03-22T14:27:48;17.50;99.90
648;DHT22;75315;49.006;9.060;2024-03-22T14:30:15;17.50;99.90
648;DHT22;75315;49.006;9.060;2024-03-22T14:32:41;17.70;99.90
648;DHT22;75315;49.006;9.060;2024-03-22T14:35:08;17.70;99.90
648;DHT22;75315;49.006;9.060;2024-03-22T14:37:35;17.80;99.90
648;DHT22;75315;49.006;9.060;2024-03-22T14:40:02;17.40;99.90
648;DHT22;75315;49.006;9.060;2024-03-22T14:42:31;17.40;99.90
648;DHT22;75315;49.006;9.060;2024-03-22T14:44:59;17.50;99.90
648;DHT22;75315;49.006;9.060;2024-03-22T14:47:25;17.50;99.90
648;DHT22;75315;49.006;9.060;2024-03-22T14:49:52;17.40;99.90
648;DHT22;75315;49.006;9.060;2024-03-22T14:52:18;17.20;99.90
648;DHT22;75315;49.006;9.060;2024-03-22T14:54:45;17.10;99.90
648;DHT22;75315;49.006;9.060;2024-03-22T14:57:11;17.10;99.90
648;DHT22;75315;49.006;9.060;2024-03-22T14:59:38;17.10;99.90
648;DHT22;75315;49.006;9.060;2024-03-22T15:02:05;17.10;99.90
648;DHT22;75315;49.006;9.060;2024-03-22T15:04:31;17.10;99.90
648;DHT22;75315;49.006;9.060;2024-03-22T15:06:58;16.80;99.90
648;DHT22;75315;49.006;9.060;2024-03-22T15:09:24;16.90;99.90
648;DHT22;75315;49.006;9.060;2024-03-22T15:11:51;16.80;99.90
648;DHT22;75315;49.006;9.060;2024-03-22T15:14:17;16.80;99.90
648;DHT22;75315;49.006;9.060;2024-03-22T15:16:43;16.80;99.90
648;DHT22;75315;49.006;9.060;2024-03-22T15:19:10;16.70;99.90
648;DHT22;75315;49.006;9.060;2024-03-22T15:21:37;16.80;99.90
648;DHT22;75315;49.006;9.060;2024-03-22T15:24:04;16.80;99.90
648;DHT22;75315;49.006;9.060;2024-03-22T15:26:31;16.70;99.90
648;DHT22;75315;49.006;9.060;2024-03-22T15:28:58;16.70;99.90
648;DHT22;75315;49.006;9.060;2024-03-22T15:31:24;16.70;99.90
648;DHT22;75315;49.006;9.060;2024-03-22T15:33:51;16.60;99.90
648;DHT22;75315;49.006;9.060;2024-03-22T15:36:17;16.60;99.90
648;DHT22;75315;49.006;9.060;2024-03-22T15:38:44;16.60;99.90
648;DHT22;75315;49.006;9.060;2024-03-22T15:41:11;16.70;99.90
648;DHT22;75315;49.006;9.060;2024-03-22T15:43:38;16.60;99.90
648;DHT22;75315;49.006;9.060;2024-03-22T15:46:05;16.60;99.90
648;DHT22;75315;49.006;9.060;2024-03-22T15:48:31;16.60;99.90
648;DHT22;75315;49.006;9.060;2024-03-22T15:50:57;16.50;99.90
648;DHT22;75315;49.006;9.060;2024-03-22T15:53:25;16.50;99.90
648;DHT22;75315;49.006;9.060;2024-03-22T15:55:52;16.50;99.90
648;DHT22;75315;49.006;9.060;2024-03-22T15:58:18;16.40;99.90
648;DHT22;75315;49.006;9.060;2024-03-22T16:00:45;16.40;99.90
648;DHT22;75315;49.006;9.060;2024-03-22T16:03:14;16.40;99.90
648;DHT22;75315;49.006;9.060;2024-03-22T16:05:51;16.50;99.90
648;DHT22;75315;49.006;9.060;2024-03-22T16:08:18;16.40;99.90
648;DHT22;75315;49.006;9.060;2024-03-22T16:10:45;16.40;99.90
648;DHT22;75315;49.006;9.060;2024-03-22T16:13:12;16.40;99.90